createdAt,value
2022-08-27T00:03:51.463Z,100723.75
2022-08-27T00:08:54.519Z,100716.03
2022-08-27T00:13:56.682Z,100712.56
2022-08-27T00:19:00.210Z,100708.13
2022-08-27T00:24:02.406Z,100725.06
2022-08-27T00:29:05.173Z,100727.91
2022-08-27T00:34:08.824Z,100709.06
2022-08-27T00:39:15.901Z,100709.16
2022-08-27T00:44:18.034Z,100715.38
2022-08-27T00:49:27.107Z,100705.88
2022-08-27T00:54:30.348Z,100699.47
2022-08-27T00:59:32.678Z,100701.94
2022-08-27T01:04:39.180Z,100704.94
2022-08-27T01:09:43.116Z,100703.19
2022-08-27T01:14:46.703Z,100705.72
2022-08-27T01:19:54.590Z,100696.88
2022-08-27T01:25:01.587Z,100703.03
2022-08-27T01:30:05.103Z,100708.13
2022-08-27T01:35:09.955Z,100714.72
2022-08-27T01:40:14.333Z,100719.97
2022-08-27T01:45:21.365Z,100715.38
2022-08-27T01:50:27.262Z,100719.84
2022-08-27T01:55:32.225Z,100714.53
2022-08-27T02:00:37.145Z,100719.13
2022-08-27T02:05:44.779Z,100716.31
2022-08-27T02:10:49.925Z,100714.28
2022-08-27T02:15:51.981Z,100719.53
2022-08-27T02:20:54.100Z,100720.09
2022-08-27T02:25:57.580Z,100717.19
2022-08-27T02:30:59.691Z,100729.53
2022-08-27T02:36:02.871Z,100735.06
2022-08-27T02:41:07.079Z,100741.34
2022-08-27T02:46:09.360Z,100735.94
2022-08-27T02:51:11.790Z,100736.50
2022-08-27T02:56:21.634Z,100732.28
2022-08-27T03:01:24.052Z,100742.84
2022-08-27T03:06:26.412Z,100746.97
2022-08-27T03:11:31.313Z,100745.44
2022-08-27T03:16:34.191Z,100750.47
2022-08-27T03:27:01.154Z,100741.44
2022-08-27T03:32:05.973Z,100735.31
2022-08-27T03:37:07.774Z,100730.13
2022-08-27T03:42:10.961Z,100727.50
2022-08-27T03:47:12.843Z,100724.81
2022-08-27T03:52:14.773Z,100723.22
2022-08-27T03:57:17.950Z,100712.66
2022-08-27T04:02:19.681Z,100706.25
2022-08-27T04:07:21.702Z,100702.94
2022-08-27T04:12:24.952Z,100694.19
2022-08-27T04:17:26.870Z,100701.63
2022-08-27T04:22:28.789Z,100707.00
2022-08-27T04:27:32.167Z,100714.88
2022-08-27T04:32:35.918Z,100717.31
2022-08-27T04:37:37.699Z,100722.72
2022-08-27T04:42:40.851Z,100717.19
2022-08-27T04:47:42.645Z,100736.09
2022-08-27T04:52:44.442Z,100731.28
2022-08-27T04:57:47.640Z,100732.22
2022-08-27T05:02:49.427Z,100731.56
2022-08-27T05:07:51.422Z,100726.13
2022-08-27T05:12:58.083Z,100728.44
2022-08-27T05:18:01.869Z,100736.50
2022-08-27T05:23:03.612Z,100733.81
2022-08-27T05:28:06.831Z,100740.63
2022-08-27T05:33:09.061Z,100732.25
2022-08-27T05:38:11.143Z,100742.16
2022-08-27T05:43:15.500Z,100731.78
2022-08-27T05:48:17.509Z,100730.19
2022-08-27T05:53:19.400Z,100720.66
2022-08-27T05:58:22.531Z,100729.81
2022-08-27T06:03:24.403Z,100726.25
2022-08-27T06:08:26.624Z,100731.97
2022-08-27T06:13:30.996Z,100731.78
2022-08-27T06:18:33.261Z,100738.19
2022-08-27T06:23:36.003Z,100742.75
2022-08-27T06:28:39.437Z,100746.88
2022-08-27T06:33:43.456Z,100754.00
2022-08-27T06:38:45.984Z,100750.75
2022-08-27T06:43:53.478Z,100755.25
2022-08-27T06:48:58.274Z,100757.31
2022-08-27T06:54:02.583Z,100753.34
2022-08-27T06:59:11.666Z,100761.50
2022-08-27T07:04:18.871Z,100764.13
2022-08-27T07:09:20.950Z,100775.41
2022-08-27T07:14:24.271Z,100783.94
2022-08-27T07:19:26.221Z,100779.94
2022-08-27T07:24:28.018Z,100783.25
2022-08-27T07:29:32.345Z,100789.94
2022-08-27T07:34:34.301Z,100784.19
2022-08-27T07:39:36.178Z,100795.63
2022-08-27T07:44:39.319Z,100786.63
2022-08-27T07:49:42.525Z,100789.78
2022-08-27T07:54:44.364Z,100793.34
2022-08-27T07:59:47.474Z,100787.31
2022-08-27T08:04:49.366Z,100794.41
2022-08-27T08:09:51.393Z,100793.56
2022-08-27T08:14:54.462Z,100802.25
2022-08-27T08:20:17.609Z,100797.91
2022-08-27T08:25:18.525Z,100794.19
2022-08-27T08:30:22.274Z,100792.22
2022-08-27T08:35:24.535Z,100797.59
2022-08-27T08:40:32.939Z,100791.84
2022-08-27T08:45:41.499Z,100782.28
2022-08-27T08:50:53.861Z,100778.09
2022-08-27T08:56:00.417Z,100781.16
2022-08-27T09:01:07.431Z,100784.91
2022-08-27T09:06:18.320Z,100783.34
2022-08-27T09:11:27.961Z,100780.44
2022-08-27T09:16:31.661Z,100777.91
2022-08-27T09:21:39.997Z,100783.72
2022-08-27T09:26:43.664Z,100774.16
2022-08-27T09:31:53.974Z,100768.72
2022-08-27T09:37:04.184Z,100768.00
2022-08-27T09:42:07.885Z,100779.47
2022-08-27T09:47:13.630Z,100779.31
2022-08-27T09:52:32.384Z,100796.47
2022-08-27T09:57:41.570Z,100792.84
2022-08-27T10:02:52.631Z,100794.50
2022-08-27T10:07:59.445Z,100797.88
2022-08-27T10:13:10.266Z,100800.38
2022-08-27T10:18:24.962Z,100812.72
2022-08-27T10:23:33.637Z,100800.28
2022-08-27T10:28:45.833Z,100818.31
2022-08-27T10:34:02.503Z,100811.59
2022-08-27T10:39:13.356Z,100825.25
2022-08-27T10:44:37.204Z,100812.41
2022-08-27T10:49:47.193Z,100815.97
2022-08-27T10:54:57.176Z,100825.34
2022-08-27T11:00:04.832Z,100827.47
2022-08-27T11:05:17.666Z,100827.44
2022-08-27T11:10:23.799Z,100827.75
2022-08-27T11:15:29.695Z,100833.03
2022-08-27T11:20:40.949Z,100826.88
2022-08-27T11:25:50.457Z,100831.72
2022-08-27T11:30:59.706Z,100828.78
2022-08-27T11:36:26.256Z,100831.91
2022-08-27T11:41:47.373Z,100833.47
2022-08-27T11:46:53.541Z,100827.00
2022-08-27T11:52:03.530Z,100829.97
2022-08-27T11:57:15.063Z,100836.25
2022-08-27T12:02:22.902Z,100829.00
2022-08-27T12:07:33.547Z,100827.16
2022-08-27T12:12:44.893Z,100823.88
2022-08-27T12:17:56.170Z,100818.41
2022-08-27T12:23:16.971Z,100814.28
2022-08-27T12:28:26.736Z,100808.31
2022-08-27T12:33:35.212Z,100803.28
2022-08-27T12:38:46.294Z,100799.25
2022-08-27T12:44:03.145Z,100801.00
2022-08-27T12:49:34.255Z,100801.38
2022-08-27T12:54:40.725Z,100788.91
2022-08-27T12:59:56.312Z,100788.81
2022-08-27T13:05:02.976Z,100785.53
2022-08-27T13:10:13.477Z,100784.03
2022-08-27T13:15:17.309Z,100785.69
2022-08-27T13:20:22.679Z,100777.63
2022-08-27T13:25:28.820Z,100776.50
2022-08-27T13:30:35.531Z,100781.88
2022-08-27T13:35:40.836Z,100783.28
2022-08-27T13:40:56.923Z,100781.31
2022-08-27T13:46:01.381Z,100777.47
2022-08-27T13:51:03.567Z,100787.22
2022-08-27T13:56:07.494Z,100783.25
2022-08-27T14:01:13.750Z,100782.47
2022-08-27T14:06:31.406Z,100791.34
2022-08-27T14:11:39.305Z,100788.72
2022-08-27T14:16:41.995Z,100787.72
2022-08-27T14:21:44.262Z,100794.53
2022-08-27T14:26:50.493Z,100789.00
2022-08-27T14:31:52.691Z,100795.44
2022-08-27T14:36:55.147Z,100784.09
2022-08-27T14:41:58.463Z,100789.84
2022-08-27T14:47:00.870Z,100782.97
2022-08-27T14:52:04.921Z,100779.00
2022-08-27T14:57:09.239Z,100784.09
2022-08-27T15:02:12.909Z,100797.38
2022-08-27T15:07:15.014Z,100804.59
2022-08-27T15:12:26.479Z,100802.31
2022-08-27T15:17:35.195Z,100815.09
2022-08-27T15:22:44.038Z,100815.44
2022-08-27T15:27:47.578Z,100820.47
2022-08-27T15:32:49.654Z,100817.53
2022-08-27T15:37:51.641Z,100826.59
2022-08-27T15:42:58.027Z,100831.31
2022-08-27T15:48:00.730Z,100827.88
2022-08-27T15:53:05.710Z,100829.00
2022-08-27T15:58:10.099Z,100825.94
2022-08-27T16:03:14.634Z,100828.88
2022-08-27T16:08:16.804Z,100833.53
2022-08-27T16:13:19.825Z,100828.66
2022-08-27T16:18:26.620Z,100832.16
2022-08-27T16:23:30.762Z,100820.13
2022-08-27T16:28:34.040Z,100839.09
2022-08-27T16:33:36.113Z,100831.50
2022-08-27T16:38:41.785Z,100837.09
2022-08-27T16:43:45.111Z,100841.56
2022-08-27T16:48:46.902Z,100844.66
2022-08-27T16:53:50.518Z,100843.53
2022-08-27T16:58:53.763Z,100844.16
2022-08-27T17:04:11.275Z,100854.78
2022-08-27T17:09:17.411Z,100857.88
2022-08-27T17:14:20.657Z,100867.06
2022-08-27T17:19:22.384Z,100876.84
2022-08-27T17:24:24.410Z,100876.91
2022-08-27T17:29:27.589Z,100895.94
2022-08-27T17:34:31.475Z,100890.19
2022-08-27T17:39:33.467Z,100900.97
2022-08-27T17:44:37.803Z,100900.63
2022-08-27T17:49:40.115Z,100902.72
2022-08-27T17:54:45.318Z,100911.88
2022-08-27T17:59:50.018Z,100921.22
2022-08-27T18:04:52.290Z,100922.28
2022-08-27T18:09:54.369Z,100920.22
2022-08-27T18:15:04.456Z,100923.97
2022-08-27T18:20:08.228Z,100930.72
2022-08-27T18:25:12.522Z,100931.94
2022-08-27T18:30:15.636Z,100937.06
2022-08-27T18:35:19.857Z,100938.34
2022-08-27T18:40:24.750Z,100943.72
2022-08-27T18:45:29.207Z,100944.00
2022-08-27T18:50:30.958Z,100944.94
2022-08-27T18:55:32.644Z,100951.28
2022-08-27T19:00:36.903Z,100954.91
2022-08-27T19:05:39.177Z,100954.84
2022-08-27T19:10:45.363Z,100963.03
2022-08-27T19:15:54.138Z,100960.50
2022-08-27T19:20:56.513Z,100959.53
2022-08-27T19:25:59.807Z,100965.78
2022-08-27T19:31:02.898Z,100961.38
2022-08-27T19:36:06.290Z,100963.38
2022-08-27T19:41:08.282Z,100974.75
2022-08-27T19:46:12.548Z,100969.63
2022-08-27T19:51:14.567Z,100976.78
2022-08-27T19:56:17.473Z,100983.81
2022-08-27T20:01:20.738Z,100977.34
2022-08-27T20:06:31.444Z,100986.38
2022-08-27T20:11:36.905Z,100982.69
2022-08-27T20:16:43.597Z,100990.28
2022-08-27T20:21:52.749Z,100994.78
2022-08-27T20:26:58.097Z,100978.78
2022-08-27T20:32:03.379Z,100987.53
2022-08-27T20:37:05.413Z,100998.13
2022-08-27T20:42:07.675Z,100999.84
2022-08-27T20:47:11.217Z,100995.66
2022-08-27T20:52:13.661Z,100993.78
2022-08-27T20:57:15.676Z,101003.31
2022-08-27T21:02:24.263Z,101000.34
2022-08-27T21:07:26.218Z,101003.84
2022-08-27T21:12:29.433Z,101009.22
2022-08-27T21:17:32.585Z,101000.22
2022-08-27T21:22:34.775Z,101002.06
2022-08-27T21:27:37.259Z,101002.13
2022-08-27T21:32:40.487Z,101002.69
2022-08-27T21:37:42.579Z,101003.66
2022-08-27T21:42:44.291Z,101000.16
2022-08-27T21:47:47.854Z,101008.06
2022-08-27T21:52:49.975Z,101005.72
2022-08-27T21:57:52.003Z,100992.44
2022-08-27T22:02:55.861Z,101004.25
2022-08-27T22:07:58.028Z,101012.09
2022-08-27T22:13:00.132Z,101002.19
2022-08-27T22:18:04.626Z,101010.38
2022-08-27T22:23:08.542Z,101010.38
2022-08-27T22:28:12.352Z,101011.53
2022-08-27T22:33:16.453Z,101009.06
2022-08-27T22:38:18.707Z,101009.34
2022-08-27T22:43:20.862Z,101003.81
2022-08-27T22:48:24.110Z,101007.63
2022-08-27T22:53:26.037Z,100997.03
2022-08-27T22:58:27.837Z,101003.56
2022-08-27T23:03:31.368Z,101003.63
2022-08-27T23:08:33.501Z,100992.25
2022-08-27T23:13:35.833Z,100995.16
2022-08-27T23:18:39.120Z,100986.00
2022-08-27T23:23:41.145Z,100996.88
2022-08-27T23:28:43.537Z,100993.25
2022-08-27T23:33:50.825Z,100995.09
2022-08-27T23:38:52.524Z,100995.28
2022-08-27T23:43:54.569Z,101002.53
2022-08-27T23:48:57.894Z,101009.78
2022-08-27T23:53:59.960Z,101008.66
2022-08-27T23:59:02.092Z,101015.03
